GOOK

Kaolack Airport

Kaolack, Senegal
METAR GOOK 220300Z 36004KT CAVOK 18/06 Q1016
Observed Flight Rules
Jan-22 @ 03:00 UTC (2 hours ago) Visual Flight Rules
Wind Visibility Clouds
360° at 4 knots 10,000+ meters
  • Clear skies
Temperatures Readings
Current 18°C / 64°F
Dewpoint 6°C / 43°F
Humidity 46%
Altimeter 30" Hg
Pressure 1015.92 hPa
Elevation 7
METAR GOOK 220300Z 36004KT CAVOK 18/06 Q1016
Observed Flight Rules
Jan-22 @ 03:00 UTC
(2 hours ago)
VFR
Wind Visibility
360° at 4 knots 10,000+ meters
Clouds
  • Clear skies
Temperature Dewpoint
18°C / 64°F 6°C / 43°F
Humidity Altimeter Pressure
46% 30" Hg 1015.92 hPa